Estación Meteorológica Peña el Pijo (Robertgarden) [ 01/30/23 13:33:26 CET ]

Fecha Hora Presion(HPa) Temp (°C) Humedad % Rocio (°C) Viento ( m/s) Direccion Lluvia 1Hora(mm) Lluvia 24H(mm) LLuvia Total(mm)
2012-Nov-25 01:01:16 1011.500 3.9 87 1.9         178.19
2012-Nov-25 02:03:22 1011.100 4.1 88 2.3         178.19
2012-Nov-25 03:01:15 1011.000 4.4 89 2.7         178.19
2012-Nov-25 04:01:16 1010.800 5.0 89 3.3         178.19
2012-Nov-25 05:01:14 1010.500 5.0 89 3.3         178.19
2012-Nov-25 06:01:12 1010.600 3.8 89 2.1         178.19
2012-Nov-25 07:01:13 1010.700 3.0 90 1.5         178.19
2012-Nov-25 08:01:16 1010.600 3.5 91 2.1         178.19
2012-Nov-25 09:01:12 1011.000 5.3 92 4.1         178.19
2012-Nov-25 10:01:12 1011.000 8.3 87 6.3         178.19
2012-Nov-25 11:01:14 1011.100 11.9 74 7.4         178.19
2012-Nov-25 12:01:17 1010.600 15.8 60 8.1         178.19
2012-Nov-25 13:01:14 1009.900 18.6 46 6.7         178.19
2012-Nov-25 14:01:17 1009.100 19.4 40 5.5         178.19
2012-Nov-25 15:01:13 1009.000 19.6 37 4.4         178.19
2012-Nov-25 16:01:17 1008.800 17.5 38 3.0         178.19
2012-Nov-25 17:01:12 1009.000 15.5 48 4.5         178.19
2012-Nov-25 18:01:16 1008.900 12.6 59 4.8         178.19
2012-Nov-25 19:01:13 1009.500 9.1 68 3.5         178.19
2012-Nov-25 20:01:12 1009.600 7.3 73 2.8         178.19
2012-Nov-25 21:01:17 1009.700 6.4 77 2.6         178.19
2012-Nov-25 22:01:14 1009.700 5.6 81 2.6         178.19
2012-Nov-25 23:01:16 1009.600 5.3 82 2.4         178.19

Temperatura Máxima:19°    Temperatura Mínima:
Presión Máxima:1011.500 Hpa    Presión Mínima:1008.800 Hpa


Volver